sensor_id;sensor_type;location;lat;lon;timestamp;P1;durP1;ratioP1;P2;durP2;ratioP2
51475;SDS011;37554;50.362;7.568;2023-06-14T00:01:34;2.30;;;2.10;;
51475;SDS011;37554;50.362;7.568;2023-06-14T00:04:00;2.88;;;2.30;;
51475;SDS011;37554;50.362;7.568;2023-06-14T00:06:28;2.95;;;2.22;;
51475;SDS011;37554;50.362;7.568;2023-06-14T00:08:54;2.60;;;2.13;;
51475;SDS011;37554;50.362;7.568;2023-06-14T00:11:19;2.60;;;2.40;;
51475;SDS011;37554;50.362;7.568;2023-06-14T00:13:45;6.50;;;2.35;;
51475;SDS011;37554;50.362;7.568;2023-06-14T00:16:11;2.90;;;2.47;;
51475;SDS011;37554;50.362;7.568;2023-06-14T00:18:37;2.28;;;2.08;;
51475;SDS011;37554;50.362;7.568;2023-06-14T00:21:03;2.28;;;2.08;;
51475;SDS011;37554;50.362;7.568;2023-06-14T00:23:30;3.80;;;2.22;;
51475;SDS011;37554;50.362;7.568;2023-06-14T00:25:55;3.05;;;2.35;;
51475;SDS011;37554;50.362;7.568;2023-06-14T00:28:21;2.65;;;2.08;;
51475;SDS011;37554;50.362;7.568;2023-06-14T00:30:47;2.83;;;2.13;;
51475;SDS011;37554;50.362;7.568;2023-06-14T00:33:12;4.50;;;2.45;;
51475;SDS011;37554;50.362;7.568;2023-06-14T00:35:38;2.80;;;2.38;;
51475;SDS011;37554;50.362;7.568;2023-06-14T00:38:04;2.50;;;2.30;;
51475;SDS011;37554;50.362;7.568;2023-06-14T00:40:30;1.90;;;1.70;;
51475;SDS011;37554;50.362;7.568;2023-06-14T00:42:55;2.40;;;2.20;;
51475;SDS011;37554;50.362;7.568;2023-06-14T00:45:21;2.42;;;2.22;;
51475;SDS011;37554;50.362;7.568;2023-06-14T00:47:46;2.38;;;2.10;;
51475;SDS011;37554;50.362;7.568;2023-06-14T00:50:15;2.55;;;2.20;;
51475;SDS011;37554;50.362;7.568;2023-06-14T00:52:41;2.35;;;2.15;;
51475;SDS011;37554;50.362;7.568;2023-06-14T00:55:07;2.47;;;2.28;;
51475;SDS011;37554;50.362;7.568;2023-06-14T00:57:33;3.45;;;2.22;;
51475;SDS011;37554;50.362;7.568;2023-06-14T01:00:02;2.58;;;2.20;;
51475;SDS011;37554;50.362;7.568;2023-06-14T01:02:29;2.45;;;2.25;;
51475;SDS011;37554;50.362;7.568;2023-06-14T01:04:55;2.25;;;2.10;;
51475;SDS011;37554;50.362;7.568;2023-06-14T01:12:41;2.47;;;2.28;;
51475;SDS011;37554;50.362;7.568;2023-06-14T01:15:17;2.53;;;2.33;;
51475;SDS011;37554;50.362;7.568;2023-06-14T01:17:45;2.38;;;2.17;;
51475;SDS011;37554;50.362;7.568;2023-06-14T01:20:16;2.42;;;2.22;;
51475;SDS011;37554;50.362;7.568;2023-06-14T01:22:54;2.30;;;2.05;;
51475;SDS011;37554;50.362;7.568;2023-06-14T01:25:20;2.75;;;2.45;;
51475;SDS011;37554;50.362;7.568;2023-06-14T01:27:48;4.22;;;2.10;;
51475;SDS011;37554;50.362;7.568;2023-06-14T01:30:17;4.93;;;2.50;;
51475;SDS011;37554;50.362;7.568;2023-06-14T01:32:43;2.45;;;2.25;;
51475;SDS011;37554;50.362;7.568;2023-06-14T01:35:10;2.60;;;2.35;;
51475;SDS011;37554;50.362;7.568;2023-06-14T01:37:36;2.80;;;2.25;;
51475;SDS011;37554;50.362;7.568;2023-06-14T01:40:03;2.30;;;2.10;;
51475;SDS011;37554;50.362;7.568;2023-06-14T01:42:32;2.50;;;2.30;;
51475;SDS011;37554;50.362;7.568;2023-06-14T01:45:03;2.90;;;2.60;;
51475;SDS011;37554;50.362;7.568;2023-06-14T01:47:31;2.42;;;2.22;;
51475;SDS011;37554;50.362;7.568;2023-06-14T01:49:57;2.80;;;2.53;;
51475;SDS011;37554;50.362;7.568;2023-06-14T01:52:23;2.55;;;2.35;;
51475;SDS011;37554;50.362;7.568;2023-06-14T01:54:49;2.50;;;2.15;;
51475;SDS011;37554;50.362;7.568;2023-06-14T01:57:15;2.80;;;2.60;;
51475;SDS011;37554;50.362;7.568;2023-06-14T01:59:41;3.30;;;2.38;;
51475;SDS011;37554;50.362;7.568;2023-06-14T02:02:07;2.83;;;2.28;;
51475;SDS011;37554;50.362;7.568;2023-06-14T02:04:33;2.25;;;2.10;;
51475;SDS011;37554;50.362;7.568;2023-06-14T02:06:59;2.85;;;2.65;;
51475;SDS011;37554;50.362;7.568;2023-06-14T02:09:24;2.97;;;2.50;;
51475;SDS011;37554;50.362;7.568;2023-06-14T02:11:50;4.05;;;2.53;;
51475;SDS011;37554;50.362;7.568;2023-06-14T02:14:16;3.72;;;2.50;;
51475;SDS011;37554;50.362;7.568;2023-06-14T02:16:42;2.75;;;2.40;;
51475;SDS011;37554;50.362;7.568;2023-06-14T02:19:14;2.97;;;2.50;;
51475;SDS011;37554;50.362;7.568;2023-06-14T02:21:41;2.60;;;2.40;;
51475;SDS011;37554;50.362;7.568;2023-06-14T02:24:07;2.80;;;2.35;;
51475;SDS011;37554;50.362;7.568;2023-06-14T02:26:33;2.83;;;2.25;;
51475;SDS011;37554;50.362;7.568;2023-06-14T02:28:59;2.45;;;2.25;;
51475;SDS011;37554;50.362;7.568;2023-06-14T02:31:24;2.80;;;2.53;;
51475;SDS011;37554;50.362;7.568;2023-06-14T02:33:50;4.00;;;2.50;;
51475;SDS011;37554;50.362;7.568;2023-06-14T02:36:16;2.92;;;2.72;;
51475;SDS011;37554;50.362;7.568;2023-06-14T02:38:42;3.85;;;2.22;;
51475;SDS011;37554;50.362;7.568;2023-06-14T02:41:07;2.65;;;2.40;;
51475;SDS011;37554;50.362;7.568;2023-06-14T02:43:33;4.72;;;2.45;;
51475;SDS011;37554;50.362;7.568;2023-06-14T02:45:58;5.55;;;2.53;;
51475;SDS011;37554;50.362;7.568;2023-06-14T02:48:24;3.85;;;2.33;;
51475;SDS011;37554;50.362;7.568;2023-06-14T02:50:50;2.80;;;2.45;;
51475;SDS011;37554;50.362;7.568;2023-06-14T02:53:16;2.85;;;2.50;;
51475;SDS011;37554;50.362;7.568;2023-06-14T02:55:42;2.75;;;2.42;;
51475;SDS011;37554;50.362;7.568;2023-06-14T02:58:07;3.92;;;2.80;;
51475;SDS011;37554;50.362;7.568;2023-06-14T03:00:33;3.10;;;2.33;;
51475;SDS011;37554;50.362;7.568;2023-06-14T03:03:00;2.50;;;2.25;;
51475;SDS011;37554;50.362;7.568;2023-06-14T03:05:26;2.50;;;2.30;;
51475;SDS011;37554;50.362;7.568;2023-06-14T03:07:53;2.50;;;2.30;;
51475;SDS011;37554;50.362;7.568;2023-06-14T03:10:19;2.30;;;2.10;;
51475;SDS011;37554;50.362;7.568;2023-06-14T03:12:45;2.15;;;2.05;;
51475;SDS011;37554;50.362;7.568;2023-06-14T03:15:12;4.18;;;2.35;;
51475;SDS011;37554;50.362;7.568;2023-06-14T03:17:42;3.42;;;2.63;;
51475;SDS011;37554;50.362;7.568;2023-06-14T03:20:10;2.58;;;2.38;;
51475;SDS011;37554;50.362;7.568;2023-06-14T03:22:36;3.85;;;2.90;;
51475;SDS011;37554;50.362;7.568;2023-06-14T03:25:02;2.60;;;2.40;;
51475;SDS011;37554;50.362;7.568;2023-06-14T03:27:29;2.53;;;2.33;;
51475;SDS011;37554;50.362;7.568;2023-06-14T03:29:54;3.08;;;2.60;;
51475;SDS011;37554;50.362;7.568;2023-06-14T03:32:20;4.30;;;2.50;;
51475;SDS011;37554;50.362;7.568;2023-06-14T03:34:46;2.60;;;2.40;;
51475;SDS011;37554;50.362;7.568;2023-06-14T03:37:11;2.83;;;2.30;;
51475;SDS011;37554;50.362;7.568;2023-06-14T03:39:37;3.17;;;2.33;;
51475;SDS011;37554;50.362;7.568;2023-06-14T03:42:03;2.65;;;2.45;;
51475;SDS011;37554;50.362;7.568;2023-06-14T03:44:29;3.70;;;2.42;;
51475;SDS011;37554;50.362;7.568;2023-06-14T03:46:55;3.17;;;2.78;;
51475;SDS011;37554;50.362;7.568;2023-06-14T03:49:20;2.95;;;2.75;;
51475;SDS011;37554;50.362;7.568;2023-06-14T03:51:46;2.60;;;2.40;;
51475;SDS011;37554;50.362;7.568;2023-06-14T03:54:16;2.70;;;2.50;;
51475;SDS011;37554;50.362;7.568;2023-06-14T03:56:41;2.38;;;2.17;;
51475;SDS011;37554;50.362;7.568;2023-06-14T03:59:07;2.58;;;2.30;;
51475;SDS011;37554;50.362;7.568;2023-06-14T04:01:32;2.58;;;2.28;;
51475;SDS011;37554;50.362;7.568;2023-06-14T04:03:58;2.35;;;2.15;;
51475;SDS011;37554;50.362;7.568;2023-06-14T04:06:24;3.25;;;2.63;;
51475;SDS011;37554;50.362;7.568;2023-06-14T04:08:57;3.25;;;2.30;;
51475;SDS011;37554;50.362;7.568;2023-06-14T04:11:26;2.85;;;2.65;;
51475;SDS011;37554;50.362;7.568;2023-06-14T04:13:52;2.75;;;2.55;;
51475;SDS011;37554;50.362;7.568;2023-06-14T04:16:21;2.90;;;2.42;;
51475;SDS011;37554;50.362;7.568;2023-06-14T04:18:47;2.70;;;2.50;;
51475;SDS011;37554;50.362;7.568;2023-06-14T04:21:16;2.60;;;2.40;;
51475;SDS011;37554;50.362;7.568;2023-06-14T04:23:42;3.67;;;2.58;;
51475;SDS011;37554;50.362;7.568;2023-06-14T04:26:08;4.88;;;2.47;;
51475;SDS011;37554;50.362;7.568;2023-06-14T04:28:35;2.65;;;2.45;;
51475;SDS011;37554;50.362;7.568;2023-06-14T04:31:05;2.28;;;2.10;;
51475;SDS011;37554;50.362;7.568;2023-06-14T04:33:33;3.97;;;2.67;;
51475;SDS011;37554;50.362;7.568;2023-06-14T04:36:08;2.28;;;2.15;;
51475;SDS011;37554;50.362;7.568;2023-06-14T04:38:36;3.33;;;2.40;;
51475;SDS011;37554;50.362;7.568;2023-06-14T04:41:02;2.80;;;2.60;;
51475;SDS011;37554;50.362;7.568;2023-06-14T04:43:28;2.80;;;2.60;;
51475;SDS011;37554;50.362;7.568;2023-06-14T04:45:53;2.70;;;2.50;;
51475;SDS011;37554;50.362;7.568;2023-06-14T04:48:21;2.63;;;2.40;;
51475;SDS011;37554;50.362;7.568;2023-06-14T04:50:47;2.50;;;2.30;;
51475;SDS011;37554;50.362;7.568;2023-06-14T04:53:17;2.33;;;2.13;;
51475;SDS011;37554;50.362;7.568;2023-06-14T04:55:46;3.78;;;2.53;;
51475;SDS011;37554;50.362;7.568;2023-06-14T04:58:13;3.17;;;2.30;;
51475;SDS011;37554;50.362;7.568;2023-06-14T05:00:39;2.40;;;2.20;;
51475;SDS011;37554;50.362;7.568;2023-06-14T05:03:04;3.75;;;2.63;;
51475;SDS011;37554;50.362;7.568;2023-06-14T05:05:31;3.67;;;2.20;;
51475;SDS011;37554;50.362;7.568;2023-06-14T05:07:57;3.10;;;2.40;;
51475;SDS011;37554;50.362;7.568;2023-06-14T05:10:23;4.18;;;2.60;;
51475;SDS011;37554;50.362;7.568;2023-06-14T05:12:49;2.80;;;2.60;;
51475;SDS011;37554;50.362;7.568;2023-06-14T05:15:15;3.03;;;2.60;;
51475;SDS011;37554;50.362;7.568;2023-06-14T05:17:41;4.07;;;2.55;;
51475;SDS011;37554;50.362;7.568;2023-06-14T05:20:07;3.58;;;2.60;;
51475;SDS011;37554;50.362;7.568;2023-06-14T05:22:35;2.85;;;2.40;;
51475;SDS011;37554;50.362;7.568;2023-06-14T05:25:01;3.10;;;2.47;;
51475;SDS011;37554;50.362;7.568;2023-06-14T05:27:27;2.42;;;2.22;;
51475;SDS011;37554;50.362;7.568;2023-06-14T05:29:52;3.63;;;2.40;;
51475;SDS011;37554;50.362;7.568;2023-06-14T05:32:23;2.63;;;2.35;;
51475;SDS011;37554;50.362;7.568;2023-06-14T05:34:49;3.30;;;2.60;;
51475;SDS011;37554;50.362;7.568;2023-06-14T05:37:15;3.53;;;2.13;;
51475;SDS011;37554;50.362;7.568;2023-06-14T05:39:42;3.00;;;2.35;;
51475;SDS011;37554;50.362;7.568;2023-06-14T05:42:07;2.35;;;2.22;;
51475;SDS011;37554;50.362;7.568;2023-06-14T05:44:33;3.75;;;2.55;;
51475;SDS011;37554;50.362;7.568;2023-06-14T05:46:59;2.35;;;2.10;;
51475;SDS011;37554;50.362;7.568;2023-06-14T05:49:24;2.47;;;2.35;;
51475;SDS011;37554;50.362;7.568;2023-06-14T05:51:50;2.72;;;2.22;;
51475;SDS011;37554;50.362;7.568;2023-06-14T05:54:16;5.30;;;2.20;;
51475;SDS011;37554;50.362;7.568;2023-06-14T05:56:41;2.50;;;2.30;;
51475;SDS011;37554;50.362;7.568;2023-06-14T05:59:07;5.15;;;2.28;;
51475;SDS011;37554;50.362;7.568;2023-06-14T06:01:33;6.53;;;2.63;;
51475;SDS011;37554;50.362;7.568;2023-06-14T06:04:01;5.18;;;2.15;;
51475;SDS011;37554;50.362;7.568;2023-06-14T06:06:27;3.47;;;2.05;;
51475;SDS011;37554;50.362;7.568;2023-06-14T06:08:53;4.15;;;2.20;;
51475;SDS011;37554;50.362;7.568;2023-06-14T06:11:18;2.67;;;2.47;;
51475;SDS011;37554;50.362;7.568;2023-06-14T06:13:45;2.33;;;2.03;;
51475;SDS011;37554;50.362;7.568;2023-06-14T06:16:10;7.63;;;2.17;;
51475;SDS011;37554;50.362;7.568;2023-06-14T06:18:36;2.50;;;2.30;;
51475;SDS011;37554;50.362;7.568;2023-06-14T06:21:03;2.90;;;2.10;;
51475;SDS011;37554;50.362;7.568;2023-06-14T06:23:29;1.92;;;1.70;;
51475;SDS011;37554;50.362;7.568;2023-06-14T06:25:55;3.28;;;2.35;;
51475;SDS011;37554;50.362;7.568;2023-06-14T06:28:20;4.78;;;2.00;;
51475;SDS011;37554;50.362;7.568;2023-06-14T06:30:46;2.72;;;1.95;;
51475;SDS011;37554;50.362;7.568;2023-06-14T06:33:12;3.25;;;2.05;;
51475;SDS011;37554;50.362;7.568;2023-06-14T06:35:38;2.17;;;1.98;;
51475;SDS011;37554;50.362;7.568;2023-06-14T06:38:03;2.38;;;2.17;;
51475;SDS011;37554;50.362;7.568;2023-06-14T06:40:29;1.80;;;1.70;;
51475;SDS011;37554;50.362;7.568;2023-06-14T06:42:55;2.17;;;1.92;;
51475;SDS011;37554;50.362;7.568;2023-06-14T06:45:20;4.07;;;1.90;;
51475;SDS011;37554;50.362;7.568;2023-06-14T06:47:46;2.45;;;1.60;;
51475;SDS011;37554;50.362;7.568;2023-06-14T06:50:12;5.15;;;2.13;;
51475;SDS011;37554;50.362;7.568;2023-06-14T06:52:37;2.78;;;1.75;;
51475;SDS011;37554;50.362;7.568;2023-06-14T06:55:03;2.95;;;1.48;;
51475;SDS011;37554;50.362;7.568;2023-06-14T06:57:29;1.95;;;1.60;;
51475;SDS011;37554;50.362;7.568;2023-06-14T06:59:54;2.67;;;1.58;;
51475;SDS011;37554;50.362;7.568;2023-06-14T07:02:20;3.05;;;1.60;;
51475;SDS011;37554;50.362;7.568;2023-06-14T07:04:46;2.65;;;1.77;;
51475;SDS011;37554;50.362;7.568;2023-06-14T07:07:11;1.98;;;1.60;;
51475;SDS011;37554;50.362;7.568;2023-06-14T07:09:37;2.95;;;1.60;;
51475;SDS011;37554;50.362;7.568;2023-06-14T07:12:03;3.75;;;1.70;;
51475;SDS011;37554;50.362;7.568;2023-06-14T07:14:29;4.50;;;1.75;;
51475;SDS011;37554;50.362;7.568;2023-06-14T07:16:55;2.15;;;1.70;;
51475;SDS011;37554;50.362;7.568;2023-06-14T07:19:20;2.35;;;1.40;;
51475;SDS011;37554;50.362;7.568;2023-06-14T07:21:46;2.28;;;1.70;;
51475;SDS011;37554;50.362;7.568;2023-06-14T07:24:13;2.85;;;1.63;;
51475;SDS011;37554;50.362;7.568;2023-06-14T07:26:39;2.08;;;1.55;;
51475;SDS011;37554;50.362;7.568;2023-06-14T07:29:04;1.85;;;1.50;;
51475;SDS011;37554;50.362;7.568;2023-06-14T07:31:30;2.58;;;1.40;;
51475;SDS011;37554;50.362;7.568;2023-06-14T07:33:56;2.95;;;1.60;;
51475;SDS011;37554;50.362;7.568;2023-06-14T07:36:22;1.42;;;1.33;;
51475;SDS011;37554;50.362;7.568;2023-06-14T07:38:47;2.60;;;1.58;;
51475;SDS011;37554;50.362;7.568;2023-06-14T07:41:13;2.25;;;1.25;;
51475;SDS011;37554;50.362;7.568;2023-06-14T07:43:38;3.70;;;1.42;;
51475;SDS011;37554;50.362;7.568;2023-06-14T07:46:04;2.25;;;1.40;;
51475;SDS011;37554;50.362;7.568;2023-06-14T07:48:30;3.60;;;1.35;;
51475;SDS011;37554;50.362;7.568;2023-06-14T07:50:56;2.72;;;0.95;;
51475;SDS011;37554;50.362;7.568;2023-06-14T07:53:21;1.75;;;1.23;;
51475;SDS011;37554;50.362;7.568;2023-06-14T07:55:47;2.63;;;1.10;;
51475;SDS011;37554;50.362;7.568;2023-06-14T07:58:13;3.00;;;1.40;;
51475;SDS011;37554;50.362;7.568;2023-06-14T08:00:39;2.92;;;1.17;;
51475;SDS011;37554;50.362;7.568;2023-06-14T08:03:05;1.65;;;1.20;;
51475;SDS011;37554;50.362;7.568;2023-06-14T08:05:30;2.45;;;1.20;;
51475;SDS011;37554;50.362;7.568;2023-06-14T08:07:56;1.77;;;1.33;;
51475;SDS011;37554;50.362;7.568;2023-06-14T08:10:22;2.42;;;1.30;;
51475;SDS011;37554;50.362;7.568;2023-06-14T08:12:48;2.47;;;1.15;;
51475;SDS011;37554;50.362;7.568;2023-06-14T08:15:15;1.33;;;1.10;;
51475;SDS011;37554;50.362;7.568;2023-06-14T08:17:42;1.00;;;0.90;;
51475;SDS011;37554;50.362;7.568;2023-06-14T08:20:08;1.17;;;1.08;;
51475;SDS011;37554;50.362;7.568;2023-06-14T08:22:35;1.42;;;1.10;;
51475;SDS011;37554;50.362;7.568;2023-06-14T08:25:02;4.35;;;1.38;;
51475;SDS011;37554;50.362;7.568;2023-06-14T08:27:28;1.10;;;1.00;;
51475;SDS011;37554;50.362;7.568;2023-06-14T08:29:54;2.28;;;1.25;;
51475;SDS011;37554;50.362;7.568;2023-06-14T08:32:21;1.75;;;1.20;;
51475;SDS011;37554;50.362;7.568;2023-06-14T08:34:46;4.80;;;1.30;;
51475;SDS011;37554;50.362;7.568;2023-06-14T08:37:12;2.00;;;1.17;;
51475;SDS011;37554;50.362;7.568;2023-06-14T08:39:38;1.63;;;1.23;;
51475;SDS011;37554;50.362;7.568;2023-06-14T08:42:04;1.63;;;1.00;;
51475;SDS011;37554;50.362;7.568;2023-06-14T08:44:32;2.05;;;1.02;;
51475;SDS011;37554;50.362;7.568;2023-06-14T08:46:59;4.97;;;1.10;;
51475;SDS011;37554;50.362;7.568;2023-06-14T08:49:25;2.75;;;0.90;;
51475;SDS011;37554;50.362;7.568;2023-06-14T08:51:59;1.75;;;0.85;;
51475;SDS011;37554;50.362;7.568;2023-06-14T08:54:28;2.35;;;1.13;;
51475;SDS011;37554;50.362;7.568;2023-06-14T08:57:00;1.85;;;1.10;;
51475;SDS011;37554;50.362;7.568;2023-06-14T08:59:27;1.23;;;0.90;;
51475;SDS011;37554;50.362;7.568;2023-06-14T09:01:53;0.98;;;0.85;;
51475;SDS011;37554;50.362;7.568;2023-06-14T09:04:20;1.73;;;1.13;;
51475;SDS011;37554;50.362;7.568;2023-06-14T09:06:50;1.45;;;0.68;;
51475;SDS011;37554;50.362;7.568;2023-06-14T09:09:20;1.70;;;1.02;;
51475;SDS011;37554;50.362;7.568;2023-06-14T09:11:48;1.15;;;0.80;;
51475;SDS011;37554;50.362;7.568;2023-06-14T09:14:14;1.02;;;0.90;;
51475;SDS011;37554;50.362;7.568;2023-06-14T09:16:40;2.22;;;0.75;;
51475;SDS011;37554;50.362;7.568;2023-06-14T09:19:06;1.52;;;0.80;;
51475;SDS011;37554;50.362;7.568;2023-06-14T09:21:33;0.90;;;0.70;;
51475;SDS011;37554;50.362;7.568;2023-06-14T09:24:01;2.20;;;0.70;;
51475;SDS011;37554;50.362;7.568;2023-06-14T09:26:27;1.20;;;0.73;;
51475;SDS011;37554;50.362;7.568;2023-06-14T09:28:53;1.40;;;0.77;;
51475;SDS011;37554;50.362;7.568;2023-06-14T09:31:20;1.10;;;0.80;;
51475;SDS011;37554;50.362;7.568;2023-06-14T09:33:50;2.78;;;0.70;;
51475;SDS011;37554;50.362;7.568;2023-06-14T09:36:21;1.17;;;1.05;;
51475;SDS011;37554;50.362;7.568;2023-06-14T09:39:03;1.13;;;0.55;;
51475;SDS011;37554;50.362;7.568;2023-06-14T09:41:33;0.85;;;0.70;;
51475;SDS011;37554;50.362;7.568;2023-06-14T09:44:00;1.33;;;0.82;;
51475;SDS011;37554;50.362;7.568;2023-06-14T09:46:28;0.68;;;0.60;;
51475;SDS011;37554;50.362;7.568;2023-06-14T09:48:57;1.95;;;0.75;;
51475;SDS011;37554;50.362;7.568;2023-06-14T09:51:24;0.63;;;0.60;;
51475;SDS011;37554;50.362;7.568;2023-06-14T09:53:50;1.60;;;0.70;;
51475;SDS011;37554;50.362;7.568;2023-06-14T09:56:36;1.52;;;0.68;;
51475;SDS011;37554;50.362;7.568;2023-06-14T09:59:06;0.75;;;0.75;;
51475;SDS011;37554;50.362;7.568;2023-06-14T10:01:34;2.20;;;0.70;;
51475;SDS011;37554;50.362;7.568;2023-06-14T10:04:06;0.60;;;0.60;;
51475;SDS011;37554;50.362;7.568;2023-06-14T10:06:33;0.70;;;0.60;;
51475;SDS011;37554;50.362;7.568;2023-06-14T10:09:02;2.15;;;0.80;;
51475;SDS011;37554;50.362;7.568;2023-06-14T10:11:31;1.15;;;0.60;;
51475;SDS011;37554;50.362;7.568;2023-06-14T10:13:57;0.98;;;0.70;;
51475;SDS011;37554;50.362;7.568;2023-06-14T10:18:51;0.75;;;0.60;;
51475;SDS011;37554;50.362;7.568;2023-06-14T10:24:28;0.88;;;0.50;;
51475;SDS011;37554;50.362;7.568;2023-06-14T10:26:57;0.43;;;0.43;;
51475;SDS011;37554;50.362;7.568;2023-06-14T10:29:26;1.02;;;0.60;;
51475;SDS011;37554;50.362;7.568;2023-06-14T10:31:57;2.20;;;0.77;;
51475;SDS011;37554;50.362;7.568;2023-06-14T10:34:25;0.73;;;0.60;;
51475;SDS011;37554;50.362;7.568;2023-06-14T10:37:02;0.82;;;0.50;;
51475;SDS011;37554;50.362;7.568;2023-06-14T10:39:33;1.08;;;0.60;;
51475;SDS011;37554;50.362;7.568;2023-06-14T10:42:06;1.20;;;0.60;;
51475;SDS011;37554;50.362;7.568;2023-06-14T10:44:33;1.02;;;0.50;;
51475;SDS011;37554;50.362;7.568;2023-06-14T10:47:07;0.70;;;0.50;;
51475;SDS011;37554;50.362;7.568;2023-06-14T10:49:49;1.50;;;0.60;;
51475;SDS011;37554;50.362;7.568;2023-06-14T10:52:24;0.57;;;0.50;;
51475;SDS011;37554;50.362;7.568;2023-06-14T10:57:55;0.40;;;0.40;;
51475;SDS011;37554;50.362;7.568;2023-06-14T11:00:22;1.77;;;0.40;;
51475;SDS011;37554;50.362;7.568;2023-06-14T11:02:59;2.38;;;0.43;;
51475;SDS011;37554;50.362;7.568;2023-06-14T11:05:50;0.60;;;0.40;;
51475;SDS011;37554;50.362;7.568;2023-06-14T11:11:08;1.05;;;0.38;;
51475;SDS011;37554;50.362;7.568;2023-06-14T11:13:39;2.75;;;0.60;;
51475;SDS011;37554;50.362;7.568;2023-06-14T11:18:40;0.60;;;0.30;;
51475;SDS011;37554;50.362;7.568;2023-06-14T11:21:06;0.50;;;0.50;;
51475;SDS011;37554;50.362;7.568;2023-06-14T11:23:33;3.20;;;0.40;;
51475;SDS011;37554;50.362;7.568;2023-06-14T11:26:00;0.57;;;0.40;;
51475;SDS011;37554;50.362;7.568;2023-06-14T11:28:35;3.17;;;0.52;;
51475;SDS011;37554;50.362;7.568;2023-06-14T11:31:05;1.55;;;0.47;;
51475;SDS011;37554;50.362;7.568;2023-06-14T11:33:31;1.08;;;0.30;;
51475;SDS011;37554;50.362;7.568;2023-06-14T11:35:57;1.73;;;0.40;;
51475;SDS011;37554;50.362;7.568;2023-06-14T11:38:23;0.43;;;0.38;;
51475;SDS011;37554;50.362;7.568;2023-06-14T11:40:49;0.30;;;0.30;;
51475;SDS011;37554;50.362;7.568;2023-06-14T11:43:15;0.40;;;0.30;;
51475;SDS011;37554;50.362;7.568;2023-06-14T11:45:42;1.42;;;0.30;;
51475;SDS011;37554;50.362;7.568;2023-06-14T11:48:07;0.32;;;0.30;;
51475;SDS011;37554;50.362;7.568;2023-06-14T11:50:33;0.75;;;0.40;;
51475;SDS011;37554;50.362;7.568;2023-06-14T11:53:03;1.27;;;0.40;;
51475;SDS011;37554;50.362;7.568;2023-06-14T11:55:35;0.30;;;0.30;;
51475;SDS011;37554;50.362;7.568;2023-06-14T11:58:05;0.90;;;0.30;;
51475;SDS011;37554;50.362;7.568;2023-06-14T12:00:31;1.40;;;0.30;;
51475;SDS011;37554;50.362;7.568;2023-06-14T12:02:57;0.77;;;0.40;;
51475;SDS011;37554;50.362;7.568;2023-06-14T12:05:24;1.35;;;0.40;;
51475;SDS011;37554;50.362;7.568;2023-06-14T12:07:57;1.85;;;0.50;;
51475;SDS011;37554;50.362;7.568;2023-06-14T12:10:24;0.77;;;0.50;;
51475;SDS011;37554;50.362;7.568;2023-06-14T12:12:50;0.50;;;0.40;;
51475;SDS011;37554;50.362;7.568;2023-06-14T12:15:16;0.60;;;0.40;;
51475;SDS011;37554;50.362;7.568;2023-06-14T12:17:42;0.50;;;0.40;;
51475;SDS011;37554;50.362;7.568;2023-06-14T12:22:36;1.35;;;0.70;;
51475;SDS011;37554;50.362;7.568;2023-06-14T12:25:02;1.65;;;0.40;;
51475;SDS011;37554;50.362;7.568;2023-06-14T12:27:29;1.95;;;0.50;;
51475;SDS011;37554;50.362;7.568;2023-06-14T12:29:58;0.60;;;0.40;;
51475;SDS011;37554;50.362;7.568;2023-06-14T12:32:24;1.40;;;0.40;;
51475;SDS011;37554;50.362;7.568;2023-06-14T12:34:50;1.13;;;0.50;;
51475;SDS011;37554;50.362;7.568;2023-06-14T12:37:15;1.10;;;0.40;;
51475;SDS011;37554;50.362;7.568;2023-06-14T12:39:41;1.13;;;0.65;;
51475;SDS011;37554;50.362;7.568;2023-06-14T12:42:07;0.60;;;0.40;;
51475;SDS011;37554;50.362;7.568;2023-06-14T12:44:33;1.63;;;0.40;;
51475;SDS011;37554;50.362;7.568;2023-06-14T12:47:00;0.95;;;0.40;;
51475;SDS011;37554;50.362;7.568;2023-06-14T12:49:26;0.40;;;0.40;;
51475;SDS011;37554;50.362;7.568;2023-06-14T12:51:52;0.60;;;0.40;;
51475;SDS011;37554;50.362;7.568;2023-06-14T12:54:17;0.60;;;0.50;;
51475;SDS011;37554;50.362;7.568;2023-06-14T12:56:43;0.30;;;0.30;;
51475;SDS011;37554;50.362;7.568;2023-06-14T12:59:09;0.55;;;0.40;;
51475;SDS011;37554;50.362;7.568;2023-06-14T13:01:37;1.08;;;0.57;;
51475;SDS011;37554;50.362;7.568;2023-06-14T13:04:03;0.98;;;0.45;;
51475;SDS011;37554;50.362;7.568;2023-06-14T13:06:29;0.63;;;0.50;;
51475;SDS011;37554;50.362;7.568;2023-06-14T13:08:56;1.33;;;0.60;;
51475;SDS011;37554;50.362;7.568;2023-06-14T13:11:23;0.50;;;0.50;;
51475;SDS011;37554;50.362;7.568;2023-06-14T13:13:49;1.27;;;0.50;;
51475;SDS011;37554;50.362;7.568;2023-06-14T13:16:15;0.82;;;0.50;;
51475;SDS011;37554;50.362;7.568;2023-06-14T13:18:40;1.45;;;0.40;;
51475;SDS011;37554;50.362;7.568;2023-06-14T13:21:06;0.70;;;0.60;;
51475;SDS011;37554;50.362;7.568;2023-06-14T13:23:32;0.95;;;0.60;;
51475;SDS011;37554;50.362;7.568;2023-06-14T13:25:58;1.15;;;0.63;;
51475;SDS011;37554;50.362;7.568;2023-06-14T13:28:24;0.43;;;0.38;;
51475;SDS011;37554;50.362;7.568;2023-06-14T13:30:49;0.40;;;0.35;;
51475;SDS011;37554;50.362;7.568;2023-06-14T13:33:15;0.93;;;0.57;;
51475;SDS011;37554;50.362;7.568;2023-06-14T13:35:41;1.13;;;0.35;;
51475;SDS011;37554;50.362;7.568;2023-06-14T13:38:08;0.90;;;0.60;;
51475;SDS011;37554;50.362;7.568;2023-06-14T13:40:35;0.63;;;0.40;;
51475;SDS011;37554;50.362;7.568;2023-06-14T13:43:00;0.40;;;0.38;;
51475;SDS011;37554;50.362;7.568;2023-06-14T13:45:26;0.60;;;0.40;;
51475;SDS011;37554;50.362;7.568;2023-06-14T13:47:51;0.40;;;0.32;;
51475;SDS011;37554;50.362;7.568;2023-06-14T13:50:18;0.63;;;0.50;;
51475;SDS011;37554;50.362;7.568;2023-06-14T13:52:44;1.17;;;0.50;;
51475;SDS011;37554;50.362;7.568;2023-06-14T13:55:11;0.38;;;0.35;;
51475;SDS011;37554;50.362;7.568;2023-06-14T13:57:36;1.80;;;0.50;;
51475;SDS011;37554;50.362;7.568;2023-06-14T14:00:02;0.68;;;0.40;;
51475;SDS011;37554;50.362;7.568;2023-06-14T14:02:28;1.42;;;0.60;;
51475;SDS011;37554;50.362;7.568;2023-06-14T14:04:54;0.80;;;0.50;;
51475;SDS011;37554;50.362;7.568;2023-06-14T14:07:22;0.57;;;0.50;;
51475;SDS011;37554;50.362;7.568;2023-06-14T14:09:48;0.35;;;0.35;;
51475;SDS011;37554;50.362;7.568;2023-06-14T14:12:14;1.17;;;0.60;;
51475;SDS011;37554;50.362;7.568;2023-06-14T14:14:40;0.77;;;0.50;;
51475;SDS011;37554;50.362;7.568;2023-06-14T14:17:06;0.75;;;0.50;;
51475;SDS011;37554;50.362;7.568;2023-06-14T14:19:32;0.77;;;0.45;;
51475;SDS011;37554;50.362;7.568;2023-06-14T14:21:57;0.75;;;0.40;;
51475;SDS011;37554;50.362;7.568;2023-06-14T14:24:23;2.03;;;0.50;;
51475;SDS011;37554;50.362;7.568;2023-06-14T14:26:49;0.88;;;0.40;;
51475;SDS011;37554;50.362;7.568;2023-06-14T14:29:18;1.83;;;0.52;;
51475;SDS011;37554;50.362;7.568;2023-06-14T14:31:44;1.92;;;0.40;;
51475;SDS011;37554;50.362;7.568;2023-06-14T14:34:11;1.23;;;0.50;;
51475;SDS011;37554;50.362;7.568;2023-06-14T14:36:36;0.70;;;0.40;;
51475;SDS011;37554;50.362;7.568;2023-06-14T14:39:03;0.60;;;0.40;;
51475;SDS011;37554;50.362;7.568;2023-06-14T14:41:29;1.02;;;0.45;;
51475;SDS011;37554;50.362;7.568;2023-06-14T14:43:55;0.93;;;0.40;;
51475;SDS011;37554;50.362;7.568;2023-06-14T14:46:21;0.68;;;0.40;;
51475;SDS011;37554;50.362;7.568;2023-06-14T14:48:46;0.47;;;0.40;;
51475;SDS011;37554;50.362;7.568;2023-06-14T14:51:12;0.82;;;0.57;;
51475;SDS011;37554;50.362;7.568;2023-06-14T14:53:37;0.77;;;0.40;;
51475;SDS011;37554;50.362;7.568;2023-06-14T14:56:03;0.43;;;0.40;;
51475;SDS011;37554;50.362;7.568;2023-06-14T14:58:29;1.05;;;0.40;;
51475;SDS011;37554;50.362;7.568;2023-06-14T15:00:55;0.55;;;0.40;;
51475;SDS011;37554;50.362;7.568;2023-06-14T15:03:20;1.40;;;0.40;;
51475;SDS011;37554;50.362;7.568;2023-06-14T15:05:46;0.50;;;0.50;;
51475;SDS011;37554;50.362;7.568;2023-06-14T15:08:12;0.40;;;0.40;;